sensor_id;sensor_type;location;lat;lon;timestamp;P1;durP1;ratioP1;P2;durP2;ratioP2
15667;SDS011;7934;48.710;9.024;2023-08-24T00:00:24;5.87;;;5.47;;
15667;SDS011;7934;48.710;9.024;2023-08-24T00:02:51;6.47;;;5.80;;
15667;SDS011;7934;48.710;9.024;2023-08-24T00:05:19;8.33;;;5.83;;
15667;SDS011;7934;48.710;9.024;2023-08-24T00:07:47;6.90;;;6.30;;
15667;SDS011;7934;48.710;9.024;2023-08-24T00:10:15;11.60;;;6.37;;
15667;SDS011;7934;48.710;9.024;2023-08-24T00:12:43;6.50;;;6.10;;
15667;SDS011;7934;48.710;9.024;2023-08-24T00:15:10;6.43;;;5.93;;
15667;SDS011;7934;48.710;9.024;2023-08-24T00:17:38;8.13;;;6.23;;
15667;SDS011;7934;48.710;9.024;2023-08-24T00:20:06;6.50;;;5.83;;
15667;SDS011;7934;48.710;9.024;2023-08-24T00:22:36;9.43;;;6.40;;
15667;SDS011;7934;48.710;9.024;2023-08-24T00:25:03;6.03;;;5.53;;
15667;SDS011;7934;48.710;9.024;2023-08-24T00:27:32;6.77;;;6.07;;
15667;SDS011;7934;48.710;9.024;2023-08-24T00:30:00;6.37;;;5.87;;
15667;SDS011;7934;48.710;9.024;2023-08-24T00:32:28;6.70;;;6.10;;
15667;SDS011;7934;48.710;9.024;2023-08-24T00:34:55;8.23;;;6.37;;
15667;SDS011;7934;48.710;9.024;2023-08-24T00:37:22;5.63;;;5.27;;
15667;SDS011;7934;48.710;9.024;2023-08-24T00:39:49;10.93;;;5.90;;
15667;SDS011;7934;48.710;9.024;2023-08-24T00:42:17;5.90;;;5.57;;
15667;SDS011;7934;48.710;9.024;2023-08-24T00:44:46;6.00;;;5.53;;
15667;SDS011;7934;48.710;9.024;2023-08-24T00:47:13;8.33;;;6.70;;
15667;SDS011;7934;48.710;9.024;2023-08-24T00:49:40;7.30;;;6.60;;
15667;SDS011;7934;48.710;9.024;2023-08-24T00:52:07;7.03;;;6.33;;
15667;SDS011;7934;48.710;9.024;2023-08-24T00:54:35;9.67;;;7.03;;
15667;SDS011;7934;48.710;9.024;2023-08-24T00:57:03;7.40;;;6.60;;
15667;SDS011;7934;48.710;9.024;2023-08-24T00:59:30;7.83;;;6.33;;
15667;SDS011;7934;48.710;9.024;2023-08-24T01:01:59;7.90;;;7.13;;
15667;SDS011;7934;48.710;9.024;2023-08-24T01:04:27;6.47;;;5.97;;
15667;SDS011;7934;48.710;9.024;2023-08-24T01:06:54;8.17;;;7.47;;
15667;SDS011;7934;48.710;9.024;2023-08-24T01:09:21;8.67;;;6.83;;
15667;SDS011;7934;48.710;9.024;2023-08-24T01:11:49;7.60;;;6.63;;
15667;SDS011;7934;48.710;9.024;2023-08-24T01:14:21;7.83;;;7.00;;
15667;SDS011;7934;48.710;9.024;2023-08-24T01:16:50;8.53;;;6.80;;
15667;SDS011;7934;48.710;9.024;2023-08-24T01:19:22;8.13;;;6.70;;
15667;SDS011;7934;48.710;9.024;2023-08-24T01:21:52;9.47;;;6.63;;
15667;SDS011;7934;48.710;9.024;2023-08-24T01:24:24;7.77;;;6.97;;
15667;SDS011;7934;48.710;9.024;2023-08-24T01:26:56;9.67;;;7.47;;
15667;SDS011;7934;48.710;9.024;2023-08-24T01:29:23;10.27;;;7.10;;
15667;SDS011;7934;48.710;9.024;2023-08-24T01:31:51;10.53;;;6.53;;
15667;SDS011;7934;48.710;9.024;2023-08-24T01:34:18;8.83;;;6.53;;
15667;SDS011;7934;48.710;9.024;2023-08-24T01:36:45;8.57;;;7.30;;
15667;SDS011;7934;48.710;9.024;2023-08-24T01:39:14;8.43;;;7.63;;
15667;SDS011;7934;48.710;9.024;2023-08-24T01:41:45;9.33;;;7.50;;
15667;SDS011;7934;48.710;9.024;2023-08-24T01:44:16;7.67;;;6.97;;
15667;SDS011;7934;48.710;9.024;2023-08-24T01:46:45;7.80;;;7.10;;
15667;SDS011;7934;48.710;9.024;2023-08-24T01:49:13;9.00;;;8.07;;
15667;SDS011;7934;48.710;9.024;2023-08-24T01:51:41;7.70;;;7.00;;
15667;SDS011;7934;48.710;9.024;2023-08-24T01:54:09;9.57;;;7.67;;
15667;SDS011;7934;48.710;9.024;2023-08-24T01:56:36;7.83;;;7.10;;
15667;SDS011;7934;48.710;9.024;2023-08-24T01:59:03;8.87;;;7.97;;
15667;SDS011;7934;48.710;9.024;2023-08-24T02:01:32;8.70;;;7.80;;
15667;SDS011;7934;48.710;9.024;2023-08-24T02:03:59;9.57;;;7.53;;
15667;SDS011;7934;48.710;9.024;2023-08-24T02:06:26;9.00;;;7.77;;
15667;SDS011;7934;48.710;9.024;2023-08-24T02:08:53;11.80;;;8.00;;
15667;SDS011;7934;48.710;9.024;2023-08-24T02:11:20;9.07;;;8.17;;
15667;SDS011;7934;48.710;9.024;2023-08-24T02:13:48;7.67;;;6.97;;
15667;SDS011;7934;48.710;9.024;2023-08-24T02:16:15;9.07;;;8.27;;
15667;SDS011;7934;48.710;9.024;2023-08-24T02:18:44;8.83;;;7.97;;
15667;SDS011;7934;48.710;9.024;2023-08-24T02:21:11;9.83;;;8.43;;
15667;SDS011;7934;48.710;9.024;2023-08-24T02:23:41;9.03;;;8.10;;
15667;SDS011;7934;48.710;9.024;2023-08-24T02:26:08;11.33;;;7.87;;
15667;SDS011;7934;48.710;9.024;2023-08-24T02:28:36;9.50;;;8.60;;
15667;SDS011;7934;48.710;9.024;2023-08-24T02:31:03;13.73;;;7.40;;
15667;SDS011;7934;48.710;9.024;2023-08-24T02:33:31;8.60;;;8.00;;
15667;SDS011;7934;48.710;9.024;2023-08-24T02:36:00;8.70;;;7.83;;
15667;SDS011;7934;48.710;9.024;2023-08-24T02:38:27;13.37;;;8.73;;
15667;SDS011;7934;48.710;9.024;2023-08-24T02:41:00;8.47;;;7.87;;
15667;SDS011;7934;48.710;9.024;2023-08-24T02:43:28;15.47;;;7.60;;
15667;SDS011;7934;48.710;9.024;2023-08-24T02:45:59;10.27;;;7.30;;
15667;SDS011;7934;48.710;9.024;2023-08-24T02:48:27;9.27;;;7.93;;
15667;SDS011;7934;48.710;9.024;2023-08-24T02:50:55;12.60;;;8.00;;
15667;SDS011;7934;48.710;9.024;2023-08-24T02:53:24;7.33;;;6.73;;
15667;SDS011;7934;48.710;9.024;2023-08-24T02:55:51;8.43;;;7.67;;
15667;SDS011;7934;48.710;9.024;2023-08-24T02:58:18;8.07;;;7.47;;
15667;SDS011;7934;48.710;9.024;2023-08-24T03:00:45;7.87;;;7.20;;
15667;SDS011;7934;48.710;9.024;2023-08-24T03:03:13;10.93;;;7.80;;
15667;SDS011;7934;48.710;9.024;2023-08-24T03:05:40;9.13;;;7.77;;
15667;SDS011;7934;48.710;9.024;2023-08-24T03:08:07;13.30;;;8.03;;
15667;SDS011;7934;48.710;9.024;2023-08-24T03:10:36;8.73;;;7.93;;
15667;SDS011;7934;48.710;9.024;2023-08-24T03:13:03;8.50;;;7.70;;
15667;SDS011;7934;48.710;9.024;2023-08-24T03:15:30;8.90;;;7.70;;
15667;SDS011;7934;48.710;9.024;2023-08-24T03:17:57;8.83;;;7.60;;
15667;SDS011;7934;48.710;9.024;2023-08-24T03:20:25;8.00;;;7.20;;
15667;SDS011;7934;48.710;9.024;2023-08-24T03:22:52;8.63;;;7.73;;
15667;SDS011;7934;48.710;9.024;2023-08-24T03:25:19;8.50;;;7.70;;
15667;SDS011;7934;48.710;9.024;2023-08-24T03:27:48;11.90;;;7.30;;
15667;SDS011;7934;48.710;9.024;2023-08-24T03:30:15;9.73;;;7.87;;
15667;SDS011;7934;48.710;9.024;2023-08-24T03:32:42;7.43;;;6.83;;
15667;SDS011;7934;48.710;9.024;2023-08-24T03:35:10;8.27;;;7.47;;
15667;SDS011;7934;48.710;9.024;2023-08-24T03:37:37;9.73;;;7.40;;
15667;SDS011;7934;48.710;9.024;2023-08-24T03:40:05;9.27;;;7.97;;
15667;SDS011;7934;48.710;9.024;2023-08-24T03:42:32;10.13;;;7.50;;
15667;SDS011;7934;48.710;9.024;2023-08-24T03:45:01;8.23;;;7.70;;
15667;SDS011;7934;48.710;9.024;2023-08-24T03:47:28;8.60;;;7.67;;
15667;SDS011;7934;48.710;9.024;2023-08-24T03:49:55;9.57;;;8.00;;
15667;SDS011;7934;48.710;9.024;2023-08-24T03:52:22;7.97;;;7.17;;
15667;SDS011;7934;48.710;9.024;2023-08-24T03:54:50;7.87;;;7.07;;
15667;SDS011;7934;48.710;9.024;2023-08-24T03:57:17;9.10;;;7.53;;
15667;SDS011;7934;48.710;9.024;2023-08-24T03:59:44;8.73;;;7.57;;
15667;SDS011;7934;48.710;9.024;2023-08-24T04:02:12;10.37;;;7.97;;
15667;SDS011;7934;48.710;9.024;2023-08-24T04:04:40;8.67;;;7.87;;
15667;SDS011;7934;48.710;9.024;2023-08-24T04:07:07;8.63;;;7.43;;
15667;SDS011;7934;48.710;9.024;2023-08-24T04:09:34;11.23;;;8.03;;
15667;SDS011;7934;48.710;9.024;2023-08-24T04:12:01;8.50;;;7.70;;
15667;SDS011;7934;48.710;9.024;2023-08-24T04:14:28;9.70;;;7.73;;
15667;SDS011;7934;48.710;9.024;2023-08-24T04:16:55;11.80;;;7.90;;
15667;SDS011;7934;48.710;9.024;2023-08-24T04:19:24;8.77;;;8.07;;
15667;SDS011;7934;48.710;9.024;2023-08-24T04:21:51;11.63;;;7.50;;
15667;SDS011;7934;48.710;9.024;2023-08-24T04:24:18;7.43;;;6.87;;
15667;SDS011;7934;48.710;9.024;2023-08-24T04:26:45;8.27;;;7.47;;
15667;SDS011;7934;48.710;9.024;2023-08-24T04:29:13;9.40;;;7.73;;
15667;SDS011;7934;48.710;9.024;2023-08-24T04:31:40;8.87;;;8.07;;
15667;SDS011;7934;48.710;9.024;2023-08-24T04:34:07;11.17;;;8.00;;
15667;SDS011;7934;48.710;9.024;2023-08-24T04:36:37;11.80;;;8.20;;
15667;SDS011;7934;48.710;9.024;2023-08-24T04:39:04;7.87;;;7.23;;
15667;SDS011;7934;48.710;9.024;2023-08-24T04:41:32;10.07;;;7.77;;
15667;SDS011;7934;48.710;9.024;2023-08-24T04:43:59;10.17;;;9.17;;
15667;SDS011;7934;48.710;9.024;2023-08-24T04:46:26;8.93;;;7.77;;
15667;SDS011;7934;48.710;9.024;2023-08-24T04:48:53;7.93;;;7.13;;
15667;SDS011;7934;48.710;9.024;2023-08-24T04:51:20;11.67;;;7.97;;
15667;SDS011;7934;48.710;9.024;2023-08-24T04:53:49;8.73;;;7.67;;
15667;SDS011;7934;48.710;9.024;2023-08-24T04:56:16;7.83;;;6.93;;
15667;SDS011;7934;48.710;9.024;2023-08-24T04:58:51;9.53;;;7.47;;
15667;SDS011;7934;48.710;9.024;2023-08-24T05:01:19;9.47;;;7.20;;
15667;SDS011;7934;48.710;9.024;2023-08-24T05:03:46;9.83;;;7.20;;
15667;SDS011;7934;48.710;9.024;2023-08-24T05:06:13;12.00;;;7.57;;
15667;SDS011;7934;48.710;9.024;2023-08-24T05:08:40;7.50;;;6.80;;
15667;SDS011;7934;48.710;9.024;2023-08-24T05:11:12;7.57;;;6.97;;
15667;SDS011;7934;48.710;9.024;2023-08-24T05:13:39;7.00;;;6.37;;
15667;SDS011;7934;48.710;9.024;2023-08-24T05:16:07;6.93;;;6.47;;
15667;SDS011;7934;48.710;9.024;2023-08-24T05:18:34;8.40;;;6.53;;
15667;SDS011;7934;48.710;9.024;2023-08-24T05:21:02;10.77;;;7.13;;
15667;SDS011;7934;48.710;9.024;2023-08-24T05:23:29;17.27;;;7.50;;
15667;SDS011;7934;48.710;9.024;2023-08-24T05:25:56;10.43;;;6.97;;
15667;SDS011;7934;48.710;9.024;2023-08-24T05:28:25;10.73;;;6.90;;
15667;SDS011;7934;48.710;9.024;2023-08-24T05:30:52;7.83;;;6.43;;
15667;SDS011;7934;48.710;9.024;2023-08-24T05:33:20;13.33;;;6.80;;
15667;SDS011;7934;48.710;9.024;2023-08-24T05:35:47;12.20;;;6.40;;
15667;SDS011;7934;48.710;9.024;2023-08-24T05:38:15;9.27;;;6.80;;
15667;SDS011;7934;48.710;9.024;2023-08-24T05:40:42;7.90;;;6.27;;
15667;SDS011;7934;48.710;9.024;2023-08-24T05:43:09;9.87;;;6.73;;
15667;SDS011;7934;48.710;9.024;2023-08-24T05:45:38;11.60;;;6.30;;
15667;SDS011;7934;48.710;9.024;2023-08-24T05:48:06;9.30;;;7.13;;
15667;SDS011;7934;48.710;9.024;2023-08-24T05:50:33;9.87;;;6.97;;
15667;SDS011;7934;48.710;9.024;2023-08-24T05:53:02;10.80;;;7.20;;
15667;SDS011;7934;48.710;9.024;2023-08-24T05:55:30;12.70;;;6.80;;
15667;SDS011;7934;48.710;9.024;2023-08-24T05:57:57;6.93;;;5.90;;
15667;SDS011;7934;48.710;9.024;2023-08-24T06:00:24;9.73;;;6.17;;
15667;SDS011;7934;48.710;9.024;2023-08-24T06:02:52;9.17;;;6.07;;
15667;SDS011;7934;48.710;9.024;2023-08-24T06:05:20;6.23;;;5.63;;
15667;SDS011;7934;48.710;9.024;2023-08-24T06:07:48;13.13;;;6.57;;
15667;SDS011;7934;48.710;9.024;2023-08-24T06:10:16;6.93;;;6.23;;
15667;SDS011;7934;48.710;9.024;2023-08-24T06:12:43;14.53;;;6.37;;
15667;SDS011;7934;48.710;9.024;2023-08-24T06:15:10;7.03;;;6.27;;
15667;SDS011;7934;48.710;9.024;2023-08-24T06:17:38;9.30;;;7.00;;
15667;SDS011;7934;48.710;9.024;2023-08-24T06:20:08;9.77;;;6.17;;
15667;SDS011;7934;48.710;9.024;2023-08-24T06:22:36;6.83;;;6.00;;
15667;SDS011;7934;48.710;9.024;2023-08-24T06:25:04;7.83;;;6.90;;
15667;SDS011;7934;48.710;9.024;2023-08-24T06:27:33;9.27;;;6.63;;
15667;SDS011;7934;48.710;9.024;2023-08-24T06:30:01;8.60;;;6.30;;
15667;SDS011;7934;48.710;9.024;2023-08-24T06:32:29;10.47;;;6.53;;
15667;SDS011;7934;48.710;9.024;2023-08-24T06:34:56;7.87;;;6.70;;
15667;SDS011;7934;48.710;9.024;2023-08-24T06:37:25;11.93;;;6.00;;
15667;SDS011;7934;48.710;9.024;2023-08-24T06:39:52;8.10;;;6.47;;
15667;SDS011;7934;48.710;9.024;2023-08-24T06:42:19;11.30;;;6.70;;
15667;SDS011;7934;48.710;9.024;2023-08-24T06:44:47;7.67;;;6.60;;
15667;SDS011;7934;48.710;9.024;2023-08-24T06:47:15;6.47;;;5.97;;
15667;SDS011;7934;48.710;9.024;2023-08-24T06:49:42;7.33;;;6.30;;
15667;SDS011;7934;48.710;9.024;2023-08-24T06:52:10;8.30;;;6.60;;
15667;SDS011;7934;48.710;9.024;2023-08-24T06:54:38;8.63;;;6.50;;
15667;SDS011;7934;48.710;9.024;2023-08-24T06:57:06;9.40;;;7.30;;
15667;SDS011;7934;48.710;9.024;2023-08-24T06:59:33;6.80;;;6.20;;
15667;SDS011;7934;48.710;9.024;2023-08-24T07:02:00;7.17;;;6.47;;
15667;SDS011;7934;48.710;9.024;2023-08-24T07:04:29;7.67;;;6.10;;
15667;SDS011;7934;48.710;9.024;2023-08-24T07:06:56;12.00;;;6.13;;
15667;SDS011;7934;48.710;9.024;2023-08-24T07:09:23;5.73;;;5.23;;
15667;SDS011;7934;48.710;9.024;2023-08-24T07:11:54;6.13;;;5.67;;
15667;SDS011;7934;48.710;9.024;2023-08-24T07:14:21;8.60;;;6.03;;
15667;SDS011;7934;48.710;9.024;2023-08-24T07:16:48;8.03;;;5.77;;
15667;SDS011;7934;48.710;9.024;2023-08-24T07:19:15;17.00;;;6.30;;
15667;SDS011;7934;48.710;9.024;2023-08-24T07:21:42;9.57;;;5.30;;
15667;SDS011;7934;48.710;9.024;2023-08-24T07:24:10;11.87;;;5.20;;
15667;SDS011;7934;48.710;9.024;2023-08-24T07:26:37;7.93;;;6.13;;
15667;SDS011;7934;48.710;9.024;2023-08-24T07:29:06;8.33;;;5.40;;
15667;SDS011;7934;48.710;9.024;2023-08-24T07:31:33;6.37;;;4.90;;
15667;SDS011;7934;48.710;9.024;2023-08-24T07:34:01;9.20;;;5.27;;
15667;SDS011;7934;48.710;9.024;2023-08-24T07:36:29;9.37;;;4.80;;
15667;SDS011;7934;48.710;9.024;2023-08-24T07:38:57;9.53;;;4.90;;
15667;SDS011;7934;48.710;9.024;2023-08-24T07:41:24;9.50;;;4.40;;
15667;SDS011;7934;48.710;9.024;2023-08-24T07:43:51;9.23;;;4.03;;
15667;SDS011;7934;48.710;9.024;2023-08-24T07:46:20;10.27;;;3.70;;
15667;SDS011;7934;48.710;9.024;2023-08-24T07:48:47;5.00;;;3.87;;
15667;SDS011;7934;48.710;9.024;2023-08-24T07:51:14;4.57;;;3.28;;
15667;SDS011;7934;48.710;9.024;2023-08-24T07:53:41;6.35;;;3.50;;
15667;SDS011;7934;48.710;9.024;2023-08-24T07:56:09;8.10;;;3.57;;
15667;SDS011;7934;48.710;9.024;2023-08-24T07:58:36;6.07;;;3.40;;
15667;SDS011;7934;48.710;9.024;2023-08-24T08:01:03;5.00;;;3.60;;
15667;SDS011;7934;48.710;9.024;2023-08-24T08:03:34;3.43;;;2.90;;
15667;SDS011;7934;48.710;9.024;2023-08-24T08:06:01;3.75;;;3.13;;
15667;SDS011;7934;48.710;9.024;2023-08-24T08:08:29;5.43;;;3.53;;
15667;SDS011;7934;48.710;9.024;2023-08-24T08:10:57;4.60;;;3.60;;
15667;SDS011;7934;48.710;9.024;2023-08-24T08:13:25;5.28;;;3.28;;
15667;SDS011;7934;48.710;9.024;2023-08-24T08:15:53;8.15;;;3.40;;
15667;SDS011;7934;48.710;9.024;2023-08-24T08:18:23;4.38;;;3.50;;
15667;SDS011;7934;48.710;9.024;2023-08-24T08:20:51;7.00;;;3.20;;
15667;SDS011;7934;48.710;9.024;2023-08-24T08:23:18;4.50;;;3.65;;
15667;SDS011;7934;48.710;9.024;2023-08-24T08:25:46;4.32;;;3.35;;
15667;SDS011;7934;48.710;9.024;2023-08-24T08:28:13;4.05;;;3.33;;
15667;SDS011;7934;48.710;9.024;2023-08-24T08:30:40;5.43;;;3.25;;
15667;SDS011;7934;48.710;9.024;2023-08-24T08:33:07;3.53;;;3.08;;
15667;SDS011;7934;48.710;9.024;2023-08-24T08:35:34;8.32;;;3.47;;
15667;SDS011;7934;48.710;9.024;2023-08-24T08:38:03;4.32;;;3.92;;
15667;SDS011;7934;48.710;9.024;2023-08-24T08:40:30;4.57;;;3.55;;
15667;SDS011;7934;48.710;9.024;2023-08-24T08:43:00;4.80;;;3.20;;
15667;SDS011;7934;48.710;9.024;2023-08-24T08:45:27;3.40;;;3.10;;
15667;SDS011;7934;48.710;9.024;2023-08-24T08:47:56;3.80;;;3.53;;
15667;SDS011;7934;48.710;9.024;2023-08-24T08:50:24;5.40;;;3.87;;
15667;SDS011;7934;48.710;9.024;2023-08-24T08:52:52;3.85;;;3.55;;
15667;SDS011;7934;48.710;9.024;2023-08-24T08:55:22;3.47;;;3.23;;
15667;SDS011;7934;48.710;9.024;2023-08-24T08:57:58;4.60;;;3.50;;
15667;SDS011;7934;48.710;9.024;2023-08-24T09:00:26;4.55;;;4.15;;
15667;SDS011;7934;48.710;9.024;2023-08-24T09:02:56;6.07;;;3.55;;
15667;SDS011;7934;48.710;9.024;2023-08-24T09:05:24;6.28;;;4.05;;
15667;SDS011;7934;48.710;9.024;2023-08-24T09:07:53;4.03;;;3.60;;
15667;SDS011;7934;48.710;9.024;2023-08-24T09:10:21;6.88;;;3.50;;
15667;SDS011;7934;48.710;9.024;2023-08-24T09:12:49;6.97;;;3.60;;
15667;SDS011;7934;48.710;9.024;2023-08-24T09:15:24;4.20;;;3.88;;
15667;SDS011;7934;48.710;9.024;2023-08-24T09:17:53;7.38;;;5.15;;
15667;SDS011;7934;48.710;9.024;2023-08-24T09:20:21;9.05;;;3.83;;
15667;SDS011;7934;48.710;9.024;2023-08-24T09:22:48;3.88;;;3.65;;
15667;SDS011;7934;48.710;9.024;2023-08-24T09:25:19;4.43;;;3.83;;
15667;SDS011;7934;48.710;9.024;2023-08-24T09:27:50;4.35;;;3.95;;
15667;SDS011;7934;48.710;9.024;2023-08-24T09:30:22;5.70;;;3.80;;
15667;SDS011;7934;48.710;9.024;2023-08-24T09:32:50;7.90;;;3.35;;
15667;SDS011;7934;48.710;9.024;2023-08-24T09:35:18;3.97;;;3.67;;
15667;SDS011;7934;48.710;9.024;2023-08-24T09:37:49;4.47;;;3.97;;
15667;SDS011;7934;48.710;9.024;2023-08-24T09:40:23;8.63;;;4.00;;
15667;SDS011;7934;48.710;9.024;2023-08-24T09:42:52;7.45;;;3.83;;
15667;SDS011;7934;48.710;9.024;2023-08-24T09:45:22;6.65;;;4.03;;
15667;SDS011;7934;48.710;9.024;2023-08-24T09:50:15;7.07;;;4.22;;
15667;SDS011;7934;48.710;9.024;2023-08-24T09:52:43;5.65;;;3.75;;
15667;SDS011;7934;48.710;9.024;2023-08-24T09:55:12;4.32;;;3.92;;
15667;SDS011;7934;48.710;9.024;2023-08-24T09:57:41;5.22;;;3.90;;
15667;SDS011;7934;48.710;9.024;2023-08-24T10:00:13;5.43;;;3.70;;
15667;SDS011;7934;48.710;9.024;2023-08-24T10:02:49;6.33;;;3.80;;
15667;SDS011;7934;48.710;9.024;2023-08-24T10:05:17;5.20;;;4.27;;
15667;SDS011;7934;48.710;9.024;2023-08-24T10:07:48;4.43;;;3.78;;
15667;SDS011;7934;48.710;9.024;2023-08-24T10:10:18;4.93;;;4.57;;
15667;SDS011;7934;48.710;9.024;2023-08-24T10:12:47;5.70;;;4.38;;
15667;SDS011;7934;48.710;9.024;2023-08-24T10:15:16;6.07;;;4.50;;
15667;SDS011;7934;48.710;9.024;2023-08-24T10:17:47;4.78;;;4.38;;
15667;SDS011;7934;48.710;9.024;2023-08-24T10:20:15;4.80;;;4.40;;
15667;SDS011;7934;48.710;9.024;2023-08-24T10:22:45;7.38;;;4.40;;
15667;SDS011;7934;48.710;9.024;2023-08-24T10:25:16;6.65;;;5.35;;
15667;SDS011;7934;48.710;9.024;2023-08-24T10:27:44;5.20;;;4.55;;
15667;SDS011;7934;48.710;9.024;2023-08-24T10:30:16;9.10;;;4.70;;
15667;SDS011;7934;48.710;9.024;2023-08-24T10:32:44;6.38;;;4.85;;
15667;SDS011;7934;48.710;9.024;2023-08-24T10:35:13;8.65;;;4.15;;
15667;SDS011;7934;48.710;9.024;2023-08-24T10:37:40;5.05;;;4.55;;
15667;SDS011;7934;48.710;9.024;2023-08-24T10:40:09;9.52;;;4.50;;
15667;SDS011;7934;48.710;9.024;2023-08-24T10:42:44;7.13;;;4.15;;
15667;SDS011;7934;48.710;9.024;2023-08-24T10:45:14;6.50;;;5.28;;
15667;SDS011;7934;48.710;9.024;2023-08-24T10:47:46;5.28;;;4.40;;
15667;SDS011;7934;48.710;9.024;2023-08-24T10:50:22;5.78;;;5.18;;
15667;SDS011;7934;48.710;9.024;2023-08-24T10:52:49;5.78;;;4.95;;
15667;SDS011;7934;48.710;9.024;2023-08-24T10:55:26;4.82;;;4.35;;
15667;SDS011;7934;48.710;9.024;2023-08-24T10:57:56;6.40;;;4.55;;
15667;SDS011;7934;48.710;9.024;2023-08-24T11:00:27;9.15;;;4.57;;
15667;SDS011;7934;48.710;9.024;2023-08-24T11:02:59;7.50;;;4.60;;
15667;SDS011;7934;48.710;9.024;2023-08-24T11:05:27;7.80;;;5.20;;
15667;SDS011;7934;48.710;9.024;2023-08-24T11:07:56;6.50;;;4.85;;
15667;SDS011;7934;48.710;9.024;2023-08-24T11:10:24;9.10;;;5.43;;
15667;SDS011;7934;48.710;9.024;2023-08-24T11:13:04;14.52;;;5.07;;
15667;SDS011;7934;48.710;9.024;2023-08-24T11:15:30;8.32;;;5.28;;
15667;SDS011;7934;48.710;9.024;2023-08-24T11:18:12;14.02;;;5.40;;
15667;SDS011;7934;48.710;9.024;2023-08-24T11:20:39;5.65;;;4.97;;
15667;SDS011;7934;48.710;9.024;2023-08-24T11:23:07;5.93;;;4.68;;
15667;SDS011;7934;48.710;9.024;2023-08-24T11:25:35;7.05;;;5.10;;
15667;SDS011;7934;48.710;9.024;2023-08-24T11:28:02;8.82;;;4.93;;
15667;SDS011;7934;48.710;9.024;2023-08-24T11:30:30;6.85;;;5.05;;
15667;SDS011;7934;48.710;9.024;2023-08-24T11:33:02;10.60;;;5.22;;
15667;SDS011;7934;48.710;9.024;2023-08-24T11:35:36;5.53;;;4.45;;
15667;SDS011;7934;48.710;9.024;2023-08-24T11:38:03;6.70;;;5.22;;
15667;SDS011;7934;48.710;9.024;2023-08-24T11:40:31;10.85;;;5.35;;
15667;SDS011;7934;48.710;9.024;2023-08-24T11:42:58;7.82;;;4.93;;
15667;SDS011;7934;48.710;9.024;2023-08-24T11:45:29;4.97;;;4.50;;
15667;SDS011;7934;48.710;9.024;2023-08-24T11:48:07;7.13;;;5.07;;
15667;SDS011;7934;48.710;9.024;2023-08-24T11:50:37;8.50;;;5.20;;
15667;SDS011;7934;48.710;9.024;2023-08-24T11:53:06;13.98;;;5.88;;
15667;SDS011;7934;48.710;9.024;2023-08-24T11:55:33;12.52;;;5.95;;
15667;SDS011;7934;48.710;9.024;2023-08-24T11:58:00;9.18;;;4.95;;
15667;SDS011;7934;48.710;9.024;2023-08-24T12:00:31;8.30;;;4.72;;
15667;SDS011;7934;48.710;9.024;2023-08-24T12:02:58;6.93;;;4.95;;
15667;SDS011;7934;48.710;9.024;2023-08-24T12:05:27;7.88;;;4.38;;
15667;SDS011;7934;48.710;9.024;2023-08-24T12:07:59;9.30;;;4.80;;
15667;SDS011;7934;48.710;9.024;2023-08-24T12:10:27;5.32;;;4.82;;
15667;SDS011;7934;48.710;9.024;2023-08-24T12:13:00;7.38;;;4.20;;
15667;SDS011;7934;48.710;9.024;2023-08-24T12:15:29;13.05;;;4.93;;
15667;SDS011;7934;48.710;9.024;2023-08-24T12:17:56;8.07;;;4.95;;
15667;SDS011;7934;48.710;9.024;2023-08-24T12:20:23;12.18;;;4.80;;
15667;SDS011;7934;48.710;9.024;2023-08-24T12:22:51;11.55;;;5.10;;
15667;SDS011;7934;48.710;9.024;2023-08-24T12:25:23;12.10;;;5.88;;
15667;SDS011;7934;48.710;9.024;2023-08-24T12:27:50;13.45;;;5.68;;
15667;SDS011;7934;48.710;9.024;2023-08-24T12:30:18;10.45;;;4.93;;
15667;SDS011;7934;48.710;9.024;2023-08-24T12:32:47;11.27;;;5.35;;
15667;SDS011;7934;48.710;9.024;2023-08-24T12:35:17;6.00;;;5.38;;
15667;SDS011;7934;48.710;9.024;2023-08-24T12:37:44;6.82;;;4.75;;
15667;SDS011;7934;48.710;9.024;2023-08-24T12:40:12;8.63;;;4.93;;
15667;SDS011;7934;48.710;9.024;2023-08-24T12:42:42;10.32;;;5.07;;
15667;SDS011;7934;48.710;9.024;2023-08-24T12:45:09;11.27;;;4.97;;
15667;SDS011;7934;48.710;9.024;2023-08-24T12:47:36;10.15;;;4.97;;
15667;SDS011;7934;48.710;9.024;2023-08-24T12:50:06;7.60;;;4.80;;
15667;SDS011;7934;48.710;9.024;2023-08-24T12:52:34;10.27;;;4.97;;
15667;SDS011;7934;48.710;9.024;2023-08-24T12:55:02;8.27;;;4.80;;
15667;SDS011;7934;48.710;9.024;2023-08-24T12:57:30;9.80;;;4.90;;
15667;SDS011;7934;48.710;9.024;2023-08-24T12:59:59;15.63;;;4.88;;
15667;SDS011;7934;48.710;9.024;2023-08-24T13:02:31;10.02;;;4.95;;
15667;SDS011;7934;48.710;9.024;2023-08-24T13:05:00;7.70;;;4.70;;
15667;SDS011;7934;48.710;9.024;2023-08-24T13:07:29;6.75;;;5.03;;
15667;SDS011;7934;48.710;9.024;2023-08-24T13:09:58;8.18;;;5.03;;
15667;SDS011;7934;48.710;9.024;2023-08-24T13:12:26;10.43;;;4.72;;
15667;SDS011;7934;48.710;9.024;2023-08-24T13:14:54;13.70;;;5.28;;
15667;SDS011;7934;48.710;9.024;2023-08-24T13:17:26;10.63;;;4.85;;
15667;SDS011;7934;48.710;9.024;2023-08-24T13:19:53;6.32;;;4.90;;
15667;SDS011;7934;48.710;9.024;2023-08-24T13:22:20;12.50;;;5.30;;
15667;SDS011;7934;48.710;9.024;2023-08-24T13:24:48;8.90;;;5.10;;
15667;SDS011;7934;48.710;9.024;2023-08-24T13:27:16;10.20;;;5.30;;
15667;SDS011;7934;48.710;9.024;2023-08-24T13:29:43;12.23;;;4.78;;
15667;SDS011;7934;48.710;9.024;2023-08-24T13:32:12;12.93;;;5.75;;
15667;SDS011;7934;48.710;9.024;2023-08-24T13:34:46;8.55;;;4.88;;
15667;SDS011;7934;48.710;9.024;2023-08-24T13:37:13;13.35;;;4.95;;
15667;SDS011;7934;48.710;9.024;2023-08-24T13:39:40;13.35;;;4.95;;
15667;SDS011;7934;48.710;9.024;2023-08-24T13:42:10;11.82;;;5.38;;
15667;SDS011;7934;48.710;9.024;2023-08-24T13:44:39;9.25;;;4.65;;
15667;SDS011;7934;48.710;9.024;2023-08-24T13:47:07;14.05;;;5.00;;
15667;SDS011;7934;48.710;9.024;2023-08-24T13:49:34;10.73;;;4.75;;
15667;SDS011;7934;48.710;9.024;2023-08-24T13:52:06;12.10;;;4.80;;
15667;SDS011;7934;48.710;9.024;2023-08-24T13:54:33;14.10;;;4.72;;
15667;SDS011;7934;48.710;9.024;2023-08-24T13:57:01;12.57;;;4.82;;
15667;SDS011;7934;48.710;9.024;2023-08-24T13:59:28;9.13;;;4.75;;
15667;SDS011;7934;48.710;9.024;2023-08-24T14:01:55;16.13;;;5.03;;
15667;SDS011;7934;48.710;9.024;2023-08-24T14:04:22;8.65;;;4.50;;
15667;SDS011;7934;48.710;9.024;2023-08-24T14:06:50;7.95;;;4.43;;
15667;SDS011;7934;48.710;9.024;2023-08-24T14:09:23;13.85;;;4.68;;
15667;SDS011;7934;48.710;9.024;2023-08-24T14:11:54;11.35;;;4.63;;
15667;SDS011;7934;48.710;9.024;2023-08-24T14:14:21;14.55;;;4.85;;
15667;SDS011;7934;48.710;9.024;2023-08-24T14:16:49;14.40;;;5.75;;
15667;SDS011;7934;48.710;9.024;2023-08-24T14:19:24;10.65;;;4.90;;
15667;SDS011;7934;48.710;9.024;2023-08-24T14:21:53;8.13;;;4.35;;
15667;SDS011;7934;48.710;9.024;2023-08-24T14:24:21;14.25;;;5.00;;
15667;SDS011;7934;48.710;9.024;2023-08-24T14:26:49;10.40;;;4.97;;
15667;SDS011;7934;48.710;9.024;2023-08-24T14:29:16;9.60;;;4.85;;
15667;SDS011;7934;48.710;9.024;2023-08-24T14:31:43;11.53;;;4.70;;
15667;SDS011;7934;48.710;9.024;2023-08-24T14:34:13;10.37;;;4.77;;
15667;SDS011;7934;48.710;9.024;2023-08-24T14:36:40;10.27;;;5.10;;
15667;SDS011;7934;48.710;9.024;2023-08-24T14:39:07;10.33;;;4.93;;
15667;SDS011;7934;48.710;9.024;2023-08-24T14:41:36;14.13;;;5.30;;
15667;SDS011;7934;48.710;9.024;2023-08-24T14:44:04;11.87;;;5.20;;
15667;SDS011;7934;48.710;9.024;2023-08-24T14:46:32;8.43;;;4.87;;
15667;SDS011;7934;48.710;9.024;2023-08-24T14:49:01;10.43;;;5.00;;
15667;SDS011;7934;48.710;9.024;2023-08-24T14:51:33;14.13;;;5.33;;
15667;SDS011;7934;48.710;9.024;2023-08-24T14:54:14;12.60;;;5.27;;
15667;SDS011;7934;48.710;9.024;2023-08-24T14:56:43;12.17;;;5.03;;
15667;SDS011;7934;48.710;9.024;2023-08-24T14:59:10;14.83;;;5.97;;
15667;SDS011;7934;48.710;9.024;2023-08-24T15:01:37;10.83;;;5.47;;
15667;SDS011;7934;48.710;9.024;2023-08-24T15:04:05;11.23;;;6.23;;
15667;SDS011;7934;48.710;9.024;2023-08-24T15:06:32;9.93;;;6.27;;